Time,TemperatureF,DewpointF,PressureIn,WindDirection,WindDirectionDegrees,WindSpeedMPH,WindSpeedGustMPH,Humidity,HourlyPrecipIn,Conditions,Clouds,dailyrainin,SoftwareType,DateUTC
2013-02-27 00:12:00,-999.0,-99.9,29.92,West,275,9.0,11.0,-999,-99.99,,,-99.99,,2013-02-27 05:12:00,
2013-02-27 00:22:00,-999.0,-99.9,29.92,West,269,8.0,10.0,-999,-99.99,,,-99.99,,2013-02-27 05:22:00,
2013-02-27 00:32:00,67.0,-99.9,29.92,North,-999,-999.0,-999.0,-999,-99.99,,,-99.99,,2013-02-27 05:32:00,
2013-02-27 00:42:00,-999.0,-99.9,29.92,West,276,7.0,9.0,-999,-99.99,,,-99.99,,2013-02-27 05:42:00,
2013-02-27 00:52:00,-999.0,-99.9,29.92,West,281,8.0,11.0,-999,-99.99,,,-99.99,,2013-02-27 05:52:00,
2013-02-27 01:02:00,-999.0,-99.9,29.92,West,267,6.0,10.0,-999,-99.99,,,-99.99,,2013-02-27 06:02:00,
2013-02-27 01:11:00,-999.0,-99.9,29.92,West,269,6.0,10.0,-999,-99.99,,,-99.99,,2013-02-27 06:11:00,
2013-02-27 01:22:00,67.0,-99.9,29.93,North,-999,-999.0,-999.0,-999,-99.99,,,-99.99,,2013-02-27 06:22:00,
2013-02-27 01:33:00,-999.0,-99.9,29.92,West,273,7.0,12.0,-999,-99.99,,,-99.99,,2013-02-27 06:33:00,
2013-02-27 01:42:00,-999.0,-99.9,29.92,West,273,6.0,9.0,-999,-99.99,,,-99.99,,2013-02-27 06:42:00,
2013-02-27 01:52:00,67.0,-99.9,29.92,North,-999,-999.0,-999.0,-999,-99.99,,,-99.99,,2013-02-27 06:52:00,
2013-02-27 02:12:00,-999.0,-99.9,29.92,WNW,288,6.0,8.0,-999,-99.99,,,-99.99,,2013-02-27 07:12:00,
2013-02-27 02:22:00,-999.0,-99.9,29.92,WNW,286,6.0,7.0,-999,-99.99,,,-99.99,,2013-02-27 07:22:00,
2013-02-27 02:32:00,67.0,-99.9,29.92,North,-999,-999.0,-999.0,-999,-99.99,,,-99.99,,2013-02-27 07:32:00,
2013-02-27 02:42:00,-999.0,-99.9,29.92,West,277,5.0,8.0,-999,-99.99,,,-99.99,,2013-02-27 07:42:00,
2013-02-27 02:52:00,67.0,-99.9,29.91,North,-999,-999.0,-999.0,-999,-99.99,,,-99.99,,2013-02-27 07:52:00,
2013-02-27 03:01:00,-999.0,-99.9,29.92,WNW,288,6.0,8.0,-999,-99.99,,,-99.99,,2013-02-27 08:01:00,
2013-02-27 03:12:00,-999.0,-99.9,29.91,WNW,283,6.0,8.0,-999,-99.99,,,-99.99,,2013-02-27 08:12:00,
2013-02-27 03:22:00,66.0,-99.9,29.91,North,-999,-999.0,-999.0,-999,-99.99,,,-99.99,,2013-02-27 08:22:00,
2013-02-27 03:32:00,-999.0,-99.9,29.91,West,279,4.0,6.0,-999,-99.99,,,-99.99,,2013-02-27 08:32:00,
2013-02-27 03:42:00,-999.0,-99.9,29.91,West,275,4.0,5.0,-999,-99.99,,,-99.99,,2013-02-27 08:42:00,
2013-02-27 03:53:00,66.0,-99.9,29.91,North,-999,-999.0,-999.0,-999,-99.99,,,-99.99,,2013-02-27 08:53:00,
2013-02-27 04:02:00,-999.0,-99.9,29.90,West,273,4.0,6.0,-999,-99.99,,,-99.99,,2013-02-27 09:02:00,
2013-02-27 04:32:00,-999.0,-99.9,29.91,WNW,300,6.0,8.0,-999,-99.99,,,-99.99,,2013-02-27 09:32:00,
2013-02-27 04:42:00,-999.0,-99.9,29.91,NW,305,6.0,8.0,-999,-99.99,,,-99.99,,2013-02-27 09:42:00,
2013-02-27 04:52:00,67.0,-99.9,29.92,North,-999,-999.0,-999.0,-999,-99.99,,,-99.99,,2013-02-27 09:52:00,
2013-02-27 05:01:00,-999.0,-99.9,29.92,WNW,303,5.0,7.0,-999,-99.99,,,-99.99,,2013-02-27 10:01:00,
2013-02-27 05:22:00,-999.0,-99.9,29.92,NW,315,3.0,5.0,-999,-99.99,,,-99.99,,2013-02-27 10:22:00,
2013-02-27 05:32:00,66.0,-99.9,29.93,North,-999,-999.0,-999.0,-999,-99.99,,,-99.99,,2013-02-27 10:32:00,
2013-02-27 05:42:00,66.0,-99.9,29.92,North,-999,-999.0,-999.0,-999,-99.99,,,-99.99,,2013-02-27 10:42:00,
2013-02-27 05:53:00,-999.0,-99.9,29.93,NW,307,4.0,6.0,-999,-99.99,,,-99.99,,2013-02-27 10:53:00,
2013-02-27 06:03:00,-999.0,-99.9,29.93,NW,312,5.0,7.0,-999,-99.99,,,-99.99,,2013-02-27 11:03:00,
2013-02-27 06:22:00,65.0,-99.9,29.93,North,-999,-999.0,-999.0,-999,-99.99,,,-99.99,,2013-02-27 11:22:00,
2013-02-27 06:32:00,-999.0,-99.9,29.93,NNW,344,4.0,6.0,-999,-99.99,,,-99.99,,2013-02-27 11:32:00,
2013-02-27 06:42:00,64.0,-99.9,29.93,North,-999,-999.0,-999.0,-999,-99.99,,,-99.99,,2013-02-27 11:42:00,
2013-02-27 06:52:00,64.0,-99.9,29.93,North,-999,-999.0,-999.0,-999,-99.99,,,-99.99,,2013-02-27 11:52:00,
2013-02-27 07:22:00,-999.0,-99.9,29.94,NNW,342,5.0,6.0,-999,-99.99,,,-99.99,,2013-02-27 12:22:00,
2013-02-27 07:33:00,-999.0,-99.9,29.94,NNW,341,4.0,6.0,-999,-99.99,,,-99.99,,2013-02-27 12:33:00,
2013-02-27 07:42:00,-999.0,-99.9,29.94,NNW,331,4.0,7.0,-999,-99.99,,,-99.99,,2013-02-27 12:42:00,
2013-02-27 07:53:00,-999.0,-99.9,29.94,NNW,345,4.0,6.0,-999,-99.99,,,-99.99,,2013-02-27 12:53:00,
2013-02-27 08:22:00,-999.0,-99.9,29.96,NW,326,5.0,7.0,-999,-99.99,,,-99.99,,2013-02-27 13:22:00,
2013-02-27 08:42:00,-999.0,-99.9,29.97,NNW,340,5.0,9.0,-999,-99.99,,,-99.99,,2013-02-27 13:42:00,
2013-02-27 08:53:00,-999.0,-99.9,29.97,NNW,346,5.0,9.0,-999,-99.99,,,-99.99,,2013-02-27 13:53:00,
2013-02-27 09:02:00,65.0,-99.9,29.98,North,-999,-999.0,-999.0,-999,-99.99,,,-99.99,,2013-02-27 14:02:00,
2013-02-27 09:22:00,66.0,-99.9,29.99,North,-999,-999.0,-999.0,-999,-99.99,,,-99.99,,2013-02-27 14:22:00,
2013-02-27 09:32:00,-999.0,-99.9,30.00,North,354,7.0,9.0,-999,-99.99,,,-99.99,,2013-02-27 14:32:00,
2013-02-27 09:42:00,-999.0,-99.9,30.00,NNW,327,5.0,9.0,-999,-99.99,,,-99.99,,2013-02-27 14:42:00,
2013-02-27 09:53:00,-999.0,-99.9,30.00,NW,320,7.0,10.0,-999,-99.99,,,-99.99,,2013-02-27 14:53:00,
2013-02-27 10:02:00,66.0,-99.9,30.00,North,-999,-999.0,-999.0,-999,-99.99,,,-99.99,,2013-02-27 15:02:00,
2013-02-27 10:13:00,-999.0,-99.9,30.00,NNW,327,9.0,13.0,-999,-99.99,,,-99.99,,2013-02-27 15:13:00,
2013-02-27 10:23:00,67.0,-99.9,30.00,North,-999,-999.0,-999.0,-999,-99.99,,,-99.99,,2013-02-27 15:23:00,
2013-02-27 10:32:00,-999.0,-99.9,30.00,North,353,6.0,9.0,-999,-99.99,,,-99.99,,2013-02-27 15:32:00,
2013-02-27 10:42:00,67.0,-99.9,30.00,North,-999,-999.0,-999.0,-999,-99.99,,,-99.99,,2013-02-27 15:42:00,
2013-02-27 10:52:00,67.0,-99.9,30.00,North,-999,-999.0,-999.0,-999,-99.99,,,-99.99,,2013-02-27 15:52:00,
2013-02-27 11:12:00,-999.0,-99.9,30.01,NW,324,9.0,12.0,-999,-99.99,,,-99.99,,2013-02-27 16:12:00,
2013-02-27 11:22:00,-999.0,-99.9,30.01,NW,324,7.0,11.0,-999,-99.99,,,-99.99,,2013-02-27 16:22:00,
2013-02-27 11:42:00,-999.0,-99.9,30.01,NW,315,10.0,13.0,-999,-99.99,,,-99.99,,2013-02-27 16:42:00,
2013-02-27 11:52:00,67.0,-99.9,30.01,North,-999,-999.0,-999.0,-999,-99.99,,,-99.99,,2013-02-27 16:52:00,
2013-02-27 12:02:00,67.0,-99.9,30.01,North,-999,-999.0,-999.0,-999,-99.99,,,-99.99,,2013-02-27 17:02:00,
2013-02-27 12:11:00,67.0,-99.9,30.01,North,-999,-999.0,-999.0,-999,-99.99,,,-99.99,,2013-02-27 17:11:00,
2013-02-27 12:22:00,68.0,-99.9,30.00,North,-999,-999.0,-999.0,-999,-99.99,,,-99.99,,2013-02-27 17:22:00,
2013-02-27 12:42:00,-999.0,-99.9,30.00,West,272,11.0,14.0,-999,-99.99,,,-99.99,,2013-02-27 17:42:00,
2013-02-27 12:52:00,68.0,-99.9,30.00,North,-999,-999.0,-999.0,-999,-99.99,,,-99.99,,2013-02-27 17:52:00,
2013-02-27 13:02:00,-999.0,-99.9,29.99,NNW,334,8.0,12.0,-999,-99.99,,,-99.99,,2013-02-27 18:02:00,
2013-02-27 13:11:00,-999.0,-99.9,29.99,WNW,292,9.0,14.0,-999,-99.99,,,-99.99,,2013-02-27 18:11:00,
2013-02-27 13:32:00,-999.0,-99.9,29.99,NW,313,8.0,13.0,-999,-99.99,,,-99.99,,2013-02-27 18:32:00,
2013-02-27 13:42:00,68.0,-99.9,29.98,North,-999,-999.0,-999.0,-999,-99.99,,,-99.99,,2013-02-27 18:42:00,
2013-02-27 13:52:00,69.0,-99.9,29.97,North,-999,-999.0,-999.0,-999,-99.99,,,-99.99,,2013-02-27 18:52:00,
2013-02-27 14:02:00,-999.0,-99.9,29.97,NW,308,6.0,11.0,-999,-99.99,,,-99.99,,2013-02-27 19:02:00,
2013-02-27 14:22:00,-999.0,-99.9,29.97,WNW,300,7.0,11.0,-999,-99.99,,,-99.99,,2013-02-27 19:22:00,
2013-02-27 14:32:00,-999.0,-99.9,29.96,NW,306,7.0,11.0,-999,-99.99,,,-99.99,,2013-02-27 19:32:00,
2013-02-27 14:42:00,69.0,-99.9,29.95,North,-999,-999.0,-999.0,-999,-99.99,,,-99.99,,2013-02-27 19:42:00,
2013-02-27 14:52:00,69.0,-99.9,29.95,North,-999,-999.0,-999.0,-999,-99.99,,,-99.99,,2013-02-27 19:52:00,
2013-02-27 15:22:00,-999.0,-99.9,29.95,West,262,10.0,15.0,-999,-99.99,,,-99.99,,2013-02-27 20:22:00,
2013-02-27 15:32:00,-999.0,-99.9,29.95,West,281,12.0,16.0,-999,-99.99,,,-99.99,,2013-02-27 20:32:00,
2013-02-27 15:42:00,68.0,-99.9,29.95,North,-999,-999.0,-999.0,-999,-99.99,,,-99.99,,2013-02-27 20:42:00,
2013-02-27 15:53:00,68.0,-99.9,29.95,North,-999,-999.0,-999.0,-999,-99.99,,,-99.99,,2013-02-27 20:53:00,
2013-02-27 16:02:00,-999.0,-99.9,29.95,West,279,15.0,18.0,-999,-99.99,,,-99.99,,2013-02-27 21:02:00,
2013-02-27 16:12:00,-999.0,-99.9,29.95,WNW,301,11.0,15.0,-999,-99.99,,,-99.99,,2013-02-27 21:12:00,
2013-02-27 16:22:00,69.0,-99.9,29.95,North,-999,-999.0,-999.0,-999,-99.99,,,-99.99,,2013-02-27 21:22:00,
2013-02-27 16:32:00,68.0,-99.9,29.96,North,-999,-999.0,-999.0,-999,-99.99,,,-99.99,,2013-02-27 21:32:00,
2013-02-27 16:42:00,68.0,-99.9,29.96,North,-999,-999.0,-999.0,-999,-99.99,,,-99.99,,2013-02-27 21:42:00,
2013-02-27 16:52:00,-999.0,-99.9,29.96,WNW,301,12.0,17.0,-999,-99.99,,,-99.99,,2013-02-27 21:52:00,
2013-02-27 17:02:00,67.0,-99.9,29.96,North,-999,-999.0,-999.0,-999,-99.99,,,-99.99,,2013-02-27 22:02:00,
2013-02-27 17:12:00,-999.0,-99.9,29.97,WNW,296,11.0,13.0,-999,-99.99,,,-99.99,,2013-02-27 22:12:00,
2013-02-27 17:22:00,-999.0,-99.9,29.97,WNW,301,12.0,14.0,-999,-99.99,,,-99.99,,2013-02-27 22:22:00,
2013-02-27 17:42:00,-999.0,-99.9,29.97,North,357,5.0,12.0,-999,-99.99,,,-99.99,,2013-02-27 22:42:00,
2013-02-27 17:52:00,65.0,-99.9,29.96,North,-999,-999.0,-999.0,-999,-99.99,,,-99.99,,2013-02-27 22:52:00,
2013-02-27 18:02:00,-999.0,-99.9,29.97,NW,307,10.0,12.0,-999,-99.99,,,-99.99,,2013-02-27 23:02:00,
2013-02-27 18:12:00,-999.0,-99.9,29.97,NW,305,8.0,11.0,-999,-99.99,,,-99.99,,2013-02-27 23:12:00,
2013-02-27 18:22:00,64.0,-99.9,29.96,North,-999,-999.0,-999.0,-999,-99.99,,,-99.99,,2013-02-27 23:22:00,
2013-02-27 18:32:00,-999.0,-99.9,29.97,NW,305,8.0,10.0,-999,-99.99,,,-99.99,,2013-02-27 23:32:00,
2013-02-27 18:42:00,64.0,-99.9,29.97,North,-999,-999.0,-999.0,-999,-99.99,,,-99.99,,2013-02-27 23:42:00,
2013-02-27 18:53:00,-999.0,-99.9,29.96,NW,307,8.0,11.0,-999,-99.99,,,-99.99,,2013-02-27 23:53:00,
2013-02-27 19:22:00,-999.0,-99.9,29.98,NW,306,7.0,10.0,-999,-99.99,,,-99.99,,2013-02-28 00:22:00,
2013-02-27 19:32:00,-999.0,-99.9,29.98,NNW,346,6.0,11.0,-999,-99.99,,,-99.99,,2013-02-28 00:32:00,
2013-02-27 19:42:00,-999.0,-99.9,29.99,North,352,6.0,9.0,-999,-99.99,,,-99.99,,2013-02-28 00:42:00,
2013-02-27 19:52:00,-999.0,-99.9,29.99,NW,322,7.0,10.0,-999,-99.99,,,-99.99,,2013-02-28 00:52:00,
2013-02-27 20:01:00,-999.0,-99.9,29.99,NNW,343,6.0,7.0,-999,-99.99,,,-99.99,,2013-02-28 01:01:00,
2013-02-27 20:22:00,-999.0,-99.9,30.00,NW,325,6.0,11.0,-999,-99.99,,,-99.99,,2013-02-28 01:22:00,
2013-02-27 20:32:00,-999.0,-99.9,30.00,NNW,341,5.0,8.0,-999,-99.99,,,-99.99,,2013-02-28 01:32:00,
2013-02-27 20:42:00,-999.0,-99.9,29.99,North,359,5.0,7.0,-999,-99.99,,,-99.99,,2013-02-28 01:42:00,
2013-02-27 20:52:00,60.0,-99.9,30.00,North,-999,-999.0,-999.0,-999,-99.99,,,-99.99,,2013-02-28 01:52:00,
2013-02-27 21:01:00,60.0,-99.9,30.00,North,-999,-999.0,-999.0,-999,-99.99,,,-99.99,,2013-02-28 02:01:00,
2013-02-27 21:11:00,-999.0,-99.9,30.00,NW,326,6.0,10.0,-999,-99.99,,,-99.99,,2013-02-28 02:11:00,
2013-02-27 21:22:00,60.0,-99.9,30.00,North,-999,-999.0,-999.0,-999,-99.99,,,-99.99,,2013-02-28 02:22:00,
2013-02-27 21:32:00,61.0,-99.9,30.00,North,-999,-999.0,-999.0,-999,-99.99,,,-99.99,,2013-02-28 02:32:00,
2013-02-27 21:42:00,61.0,-99.9,30.00,North,-999,-999.0,-999.0,-999,-99.99,,,-99.99,,2013-02-28 02:42:00,
2013-02-27 21:52:00,61.0,-99.9,30.00,North,-999,-999.0,-999.0,-999,-99.99,,,-99.99,,2013-02-28 02:52:00,
2013-02-27 22:22:00,60.0,-99.9,30.00,North,-999,-999.0,-999.0,-999,-99.99,,,-99.99,,2013-02-28 03:22:00,
2013-02-27 22:32:00,60.0,-99.9,30.01,North,-999,-999.0,-999.0,-999,-99.99,,,-99.99,,2013-02-28 03:32:00,
2013-02-27 22:42:00,-999.0,-99.9,30.01,NW,315,5.0,6.0,-999,-99.99,,,-99.99,,2013-02-28 03:42:00,
2013-02-27 22:52:00,61.0,-99.9,30.01,North,-999,-999.0,-999.0,-999,-99.99,,,-99.99,,2013-02-28 03:52:00,
2013-02-27 23:02:00,60.0,-99.9,30.01,North,-999,-999.0,-999.0,-999,-99.99,,,-99.99,,2013-02-28 04:02:00,
2013-02-27 23:11:00,-999.0,-99.9,30.01,NW,305,6.0,8.0,-999,-99.99,,,-99.99,,2013-02-28 04:11:00,
2013-02-27 23:22:00,60.0,-99.9,30.01,North,-999,-999.0,-999.0,-999,-99.99,,,-99.99,,2013-02-28 04:22:00,
2013-02-27 23:32:00,-999.0,-99.9,30.01,NW,309,7.0,9.0,-999,-99.99,,,-99.99,,2013-02-28 04:32:00,
2013-02-27 23:42:00,-999.0,-99.9,30.01,NW,304,5.0,7.0,-999,-99.99,,,-99.99,,2013-02-28 04:42:00,
2013-02-27 23:52:00,61.0,-99.9,30.00,North,-999,-999.0,-999.0,-999,-99.99,,,-99.99,,2013-02-28 04:52:00,